Time,TemperatureF,DewpointF,PressureIn,WindDirection,WindDirectionDegrees,WindSpeedMPH,WindSpeedGustMPH,Humidity,HourlyPrecipIn,Conditions,Clouds,dailyrainin,SoftwareType,DateUTC
2013-04-08 00:23:00,62.0,59.0,29.95,SE,134,4.0,4.0,91,0.00,,,0.00,weatherlink.com 1.10,2013-04-08 05:23:00,
2013-04-08 00:54:00,62.0,60.0,29.94,SSE,149,2.0,5.0,92,0.00,,,0.00,weatherlink.com 1.10,2013-04-08 05:54:00,
2013-04-08 01:08:00,62.0,60.0,29.94,SE,142,2.0,4.0,93,0.00,,,0.00,weatherlink.com 1.10,2013-04-08 06:08:00,
2013-04-08 01:39:00,62.0,60.0,29.94,SE,135,1.0,5.0,93,0.00,,,0.00,weatherlink.com 1.10,2013-04-08 06:39:00,
2013-04-08 02:09:00,61.6,60.0,29.93,SE,132,3.0,3.0,93,0.00,,,0.00,weatherlink.com 1.10,2013-04-08 07:09:00,
2013-04-08 02:24:00,61.5,60.0,29.93,South,169,1.0,4.0,93,0.00,,,0.00,weatherlink.com 1.10,2013-04-08 07:24:00,
2013-04-08 02:39:00,61.3,60.0,29.93,SE,142,2.0,3.0,94,0.00,,,0.00,weatherlink.com 1.10,2013-04-08 07:39:00,
2013-04-08 02:54:00,61.0,59.0,29.93,SSE,148,1.0,2.0,94,0.00,,,0.00,weatherlink.com 1.10,2013-04-08 07:54:00,
2013-04-08 03:09:00,61.0,59.0,29.93,SSE,165,2.0,4.0,94,0.00,,,0.00,weatherlink.com 1.10,2013-04-08 08:09:00,
2013-04-08 03:24:00,61.0,59.0,29.93,SE,136,1.0,3.0,94,0.00,,,0.00,weatherlink.com 1.10,2013-04-08 08:24:00,
2013-04-08 03:39:00,61.0,59.0,29.92,SSE,150,1.0,3.0,94,0.00,,,0.00,weatherlink.com 1.10,2013-04-08 08:39:00,
2013-04-08 04:09:00,60.6,59.0,29.91,SE,138,2.0,3.0,95,0.00,,,0.00,weatherlink.com 1.10,2013-04-08 09:09:00,
2013-04-08 04:54:00,60.3,59.0,29.91,SSE,150,1.0,2.0,95,0.00,,,0.00,weatherlink.com 1.10,2013-04-08 09:54:00,
2013-04-08 05:09:00,60.3,59.0,29.92,SSW,197,1.0,3.0,95,0.00,,,0.00,weatherlink.com 1.10,2013-04-08 10:09:00,
2013-04-08 05:24:00,60.2,59.0,29.92,SSE,163,1.0,2.0,95,0.00,,,0.00,weatherlink.com 1.10,2013-04-08 10:24:00,
2013-04-08 05:39:00,60.3,59.0,29.93,SE,146,1.0,6.0,96,0.00,,,0.00,weatherlink.com 1.10,2013-04-08 10:39:00,
2013-04-08 05:54:00,60.3,59.0,29.92,SE,135,2.0,3.0,96,0.00,,,0.00,weatherlink.com 1.10,2013-04-08 10:54:00,
2013-04-08 06:09:00,60.2,59.0,29.93,South,172,2.0,5.0,96,0.00,,,0.00,weatherlink.com 1.10,2013-04-08 11:09:00,
2013-04-08 06:24:00,60.2,59.0,29.93,SSE,167,1.0,4.0,96,0.00,,,0.00,weatherlink.com 1.10,2013-04-08 11:24:00,
2013-04-08 06:39:00,60.3,59.0,29.93,SSE,163,1.0,4.0,96,0.00,,,0.00,weatherlink.com 1.10,2013-04-08 11:39:00,
2013-04-08 06:54:00,60.4,59.0,29.93,SE,126,0.0,3.0,96,0.00,,,0.00,weatherlink.com 1.10,2013-04-08 11:54:00,
2013-04-08 07:09:00,60.5,59.0,29.94,SE,145,1.0,4.0,96,0.00,,,0.00,weatherlink.com 1.10,2013-04-08 12:09:00,
2013-04-08 07:24:00,60.9,60.0,29.95,SSE,150,1.0,3.0,96,0.00,,,0.00,weatherlink.com 1.10,2013-04-08 12:24:00,
2013-04-08 07:39:00,61.2,60.0,29.95,SSE,163,1.0,4.0,96,0.00,,,0.00,weatherlink.com 1.10,2013-04-08 12:39:00,
2013-04-08 07:54:00,61.5,60.0,29.96,SE,145,3.0,5.0,95,0.00,,,0.00,weatherlink.com 1.10,2013-04-08 12:54:00,
2013-04-08 08:09:00,62.0,60.0,29.96,SSE,156,1.0,4.0,94,0.00,,,0.00,weatherlink.com 1.10,2013-04-08 13:09:00,
2013-04-08 08:24:00,62.7,61.0,29.96,SE,135,4.0,7.0,93,0.00,,,0.00,weatherlink.com 1.10,2013-04-08 13:24:00,
2013-04-08 08:39:00,63.3,61.0,29.96,SSW,208,3.0,5.0,92,0.00,,,0.00,weatherlink.com 1.10,2013-04-08 13:39:00,
2013-04-08 08:54:00,64.7,62.0,29.96,SE,129,3.0,4.0,89,0.00,,,0.00,weatherlink.com 1.10,2013-04-08 13:54:00,
2013-04-08 09:09:00,65.9,62.0,29.96,SE,138,3.0,5.0,87,0.00,,,0.00,weatherlink.com 1.10,2013-04-08 14:09:00,
2013-04-08 09:24:00,66.9,62.0,29.96,SE,134,3.0,6.0,85,0.00,,,0.00,weatherlink.com 1.10,2013-04-08 14:24:00,
2013-04-08 09:39:00,68.6,63.0,29.96,SE,146,2.0,5.0,82,0.00,,,0.00,weatherlink.com 1.10,2013-04-08 14:39:00,
2013-04-08 09:54:00,69.7,63.0,29.96,SE,142,4.0,7.0,80,0.00,,,0.00,weatherlink.com 1.10,2013-04-08 14:54:00,
2013-04-08 10:09:00,70.3,62.0,29.97,South,191,4.0,9.0,76,0.00,,,0.00,weatherlink.com 1.10,2013-04-08 15:09:00,
2013-04-08 10:24:00,71.0,63.0,29.97,South,190,5.0,10.0,75,0.00,,,0.00,weatherlink.com 1.10,2013-04-08 15:24:00,
2013-04-08 10:40:00,71.9,62.0,29.98,SSW,204,4.0,9.0,72,0.00,,,0.00,weatherlink.com 1.10,2013-04-08 15:40:00,
2013-04-08 10:55:00,72.5,63.0,29.98,South,184,4.0,9.0,71,0.00,,,0.00,weatherlink.com 1.10,2013-04-08 15:55:00,
2013-04-08 11:10:00,72.7,64.0,29.98,SSE,163,3.0,8.0,73,0.00,,,0.00,weatherlink.com 1.10,2013-04-08 16:10:00,
2013-04-08 11:25:00,73.6,63.0,29.98,South,177,3.0,9.0,70,0.00,,,0.00,weatherlink.com 1.10,2013-04-08 16:25:00,
2013-04-08 11:40:00,73.9,64.0,29.98,SE,139,3.0,8.0,70,0.00,,,0.00,weatherlink.com 1.10,2013-04-08 16:40:00,
2013-04-08 11:55:00,74.0,62.0,29.98,SE,125,5.0,11.0,66,0.00,,,0.00,weatherlink.com 1.10,2013-04-08 16:55:00,
2013-04-08 12:10:00,74.7,63.0,29.98,SSE,162,2.0,9.0,67,0.00,,,0.00,weatherlink.com 1.10,2013-04-08 17:10:00,
2013-04-08 12:25:00,76.1,63.0,29.97,SE,134,4.0,8.0,65,0.00,,,0.00,weatherlink.com 1.10,2013-04-08 17:25:00,
2013-04-08 12:40:00,76.1,63.0,29.97,SSE,148,3.0,10.0,65,0.00,,,0.00,weatherlink.com 1.10,2013-04-08 17:40:00,
2013-04-08 12:55:00,76.4,63.0,29.96,South,187,7.0,11.0,64,0.00,,,0.00,weatherlink.com 1.10,2013-04-08 17:55:00,
2013-04-08 13:10:00,76.1,63.0,29.96,South,187,6.0,10.0,64,0.00,,,0.00,weatherlink.com 1.10,2013-04-08 18:10:00,
2013-04-08 13:25:00,77.6,63.0,29.96,WSW,245,1.0,10.0,62,0.00,,,0.00,weatherlink.com 1.10,2013-04-08 18:25:00,
2013-04-08 13:40:00,78.8,63.0,29.95,SE,139,3.0,12.0,58,0.00,,,0.00,weatherlink.com 1.10,2013-04-08 18:40:00,
2013-04-08 13:55:00,77.8,62.0,29.95,SE,134,5.0,10.0,59,0.00,,,0.00,weatherlink.com 1.10,2013-04-08 18:55:00,
2013-04-08 14:10:00,78.2,63.0,29.95,SSE,153,6.0,10.0,59,0.00,,,0.00,weatherlink.com 1.10,2013-04-08 19:10:00,
2013-04-08 14:25:00,78.3,63.0,29.94,SE,138,2.0,10.0,60,0.00,,,0.00,weatherlink.com 1.10,2013-04-08 19:25:00,
2013-04-08 14:40:00,78.3,63.0,29.93,SE,125,4.0,13.0,60,0.00,,,0.00,weatherlink.com 1.10,2013-04-08 19:40:00,
2013-04-08 14:55:00,79.9,62.0,29.92,SE,146,5.0,10.0,55,0.00,,,0.00,weatherlink.com 1.10,2013-04-08 19:55:00,
2013-04-08 15:10:00,79.8,63.0,29.91,SE,129,3.0,9.0,57,0.00,,,0.00,weatherlink.com 1.10,2013-04-08 20:10:00,
2013-04-08 15:25:00,79.7,63.0,29.91,South,180,4.0,9.0,56,0.00,,,0.00,weatherlink.com 1.10,2013-04-08 20:25:00,
2013-04-08 15:40:00,78.6,62.0,29.90,ESE,117,2.0,8.0,58,0.00,,,0.00,weatherlink.com 1.10,2013-04-08 20:40:00,
2013-04-08 15:55:00,79.0,62.0,29.91,SE,136,4.0,12.0,56,0.00,,,0.00,weatherlink.com 1.10,2013-04-08 20:55:00,
2013-04-08 16:10:00,78.7,62.0,29.91,SE,124,4.0,11.0,56,0.00,,,0.00,weatherlink.com 1.10,2013-04-08 21:10:00,
2013-04-08 16:25:00,78.7,62.0,29.91,SE,139,3.0,8.0,56,0.00,,,0.00,weatherlink.com 1.10,2013-04-08 21:25:00,
2013-04-08 16:40:00,78.6,62.0,29.91,SE,146,8.0,9.0,57,0.00,,,0.00,weatherlink.com 1.10,2013-04-08 21:40:00,
2013-04-08 16:55:00,77.6,62.0,29.91,SSE,150,3.0,10.0,58,0.00,,,0.00,weatherlink.com 1.10,2013-04-08 21:55:00,
2013-04-08 17:10:00,78.8,63.0,29.90,South,174,4.0,9.0,58,0.00,,,0.00,weatherlink.com 1.10,2013-04-08 22:10:00,
2013-04-08 17:25:00,77.9,62.0,29.90,SE,145,6.0,9.0,59,0.00,,,0.00,weatherlink.com 1.10,2013-04-08 22:25:00,
2013-04-08 17:40:00,78.3,62.0,29.91,SSE,160,3.0,11.0,58,0.00,,,0.00,weatherlink.com 1.10,2013-04-08 22:40:00,
2013-04-08 17:55:00,77.9,63.0,29.91,SE,128,4.0,12.0,61,0.00,,,0.00,weatherlink.com 1.10,2013-04-08 22:55:00,
2013-04-08 18:10:00,77.6,63.0,29.91,South,181,6.0,9.0,62,0.00,,,0.00,weatherlink.com 1.10,2013-04-08 23:10:00,
2013-04-08 18:25:00,76.9,64.0,29.91,SSE,155,6.0,10.0,64,0.00,,,0.00,weatherlink.com 1.10,2013-04-08 23:25:00,
2013-04-08 18:40:00,76.0,64.0,29.91,SE,134,2.0,8.0,66,0.00,,,0.00,weatherlink.com 1.10,2013-04-08 23:40:00,
2013-04-08 18:55:00,75.1,64.0,29.91,SSE,152,4.0,8.0,68,0.00,,,0.00,weatherlink.com 1.10,2013-04-08 23:55:00,
2013-04-08 19:10:00,74.4,64.0,29.90,SE,128,7.0,11.0,70,0.00,,,0.00,weatherlink.com 1.10,2013-04-09 00:10:00,
2013-04-08 19:25:00,73.8,64.0,29.90,SE,146,2.0,7.0,72,0.00,,,0.00,weatherlink.com 1.10,2013-04-09 00:25:00,
2013-04-08 19:40:00,73.2,64.0,29.91,SE,145,2.0,3.0,74,0.00,,,0.00,weatherlink.com 1.10,2013-04-09 00:40:00,
2013-04-08 19:55:00,73.0,64.0,29.91,SE,145,2.0,6.0,74,0.00,,,0.00,weatherlink.com 1.10,2013-04-09 00:55:00,
2013-04-08 20:11:00,72.4,64.0,29.90,SSE,154,2.0,8.0,76,0.00,,,0.00,weatherlink.com 1.10,2013-04-09 01:11:00,
2013-04-08 20:25:00,71.8,65.0,29.91,SSE,153,2.0,8.0,78,0.00,,,0.00,weatherlink.com 1.10,2013-04-09 01:25:00,
2013-04-08 20:55:00,70.5,64.0,29.91,ESE,115,4.0,9.0,81,0.00,,,0.00,weatherlink.com 1.10,2013-04-09 01:55:00,
2013-04-08 21:10:00,70.0,65.0,29.91,East,91,4.0,6.0,84,0.00,,,0.00,weatherlink.com 1.10,2013-04-09 02:10:00,
2013-04-08 21:25:00,69.7,65.0,29.91,ESE,123,2.0,7.0,85,0.00,,,0.00,weatherlink.com 1.10,2013-04-09 02:25:00,
2013-04-08 21:40:00,69.5,65.0,29.91,SE,129,2.0,7.0,86,0.00,,,0.00,weatherlink.com 1.10,2013-04-09 02:40:00,
2013-04-08 21:55:00,69.6,66.0,29.90,SE,136,3.0,10.0,87,0.00,,,0.00,weatherlink.com 1.10,2013-04-09 02:55:00,
2013-04-08 22:10:00,69.9,66.0,29.91,SE,144,5.0,7.0,87,0.00,,,0.00,weatherlink.com 1.10,2013-04-09 03:10:00,
2013-04-08 22:26:00,69.9,66.0,29.92,ESE,114,6.0,10.0,87,0.00,,,0.00,weatherlink.com 1.10,2013-04-09 03:26:00,
2013-04-08 22:41:00,70.1,66.0,29.93,SE,136,5.0,10.0,87,0.00,,,0.00,weatherlink.com 1.10,2013-04-09 03:41:00,
2013-04-08 22:56:00,70.3,66.0,29.92,SSE,150,2.0,9.0,87,0.00,,,0.00,weatherlink.com 1.10,2013-04-09 03:56:00,
2013-04-08 23:11:00,70.2,66.0,29.93,South,183,4.0,6.0,86,0.00,,,0.00,weatherlink.com 1.10,2013-04-09 04:11:00,
2013-04-08 23:26:00,70.3,66.0,29.93,SSW,210,6.0,7.0,86,0.00,,,0.00,weatherlink.com 1.10,2013-04-09 04:26:00,
2013-04-08 23:41:00,70.3,66.0,29.92,SSE,160,5.0,7.0,86,0.00,,,0.00,weatherlink.com 1.10,2013-04-09 04:41:00,
2013-04-08 23:56:00,70.1,66.0,29.92,SSE,158,2.0,5.0,87,0.00,,,0.00,weatherlink.com 1.10,2013-04-09 04:56:00,